Time;durP1;ratioP1;P1;durP2;ratioP2;P2;SDS_P1;SDS_P2;PMS_P1;PMS_P2;Temp;Humidity;BMP_temperature;BMP_pressure;BME280_temperature;BME280_humidity;BME280_pressure;Samples;Min_cycle;Max_cycle;Signal;HPM_P1;HPM_P2
2021/03/25 05:43:49;;;;;;;;;;;;;;;-0.59;82.87;99927.52;1741170;81;20458;-47
2021/03/25 05:46:32;;;;;;;;;;;;;;;-0.50;82.36;99939.00;1726980;83;20163;-47
2021/03/25 05:49:13;;;;;;;;;;;;;;;-0.45;82.50;99936.20;1723712;82;20174;-46
2021/03/25 05:51:59;;;;;;;;;;;;;;;-0.40;82.05;99935.55;1712360;82;20458;-48
2021/03/25 05:54:47;;;;;;;;;;;;;;;-0.37;81.85;99938.22;1717115;82;20183;-48
2021/03/25 05:57:39;;;;;;;;;;;;;;;-0.34;81.68;99938.77;1705390;82;20176;-48
2021/03/25 06:00:11;;;;;;;;;;;;;;;-0.30;81.26;99935.47;1713167;82;20180;-41
2021/03/25 06:02:42;;;;;;;;;;;;;;;-0.29;80.26;99935.55;1714223;82;20287;-40
2021/03/25 06:05:11;;;;;;;;;;;;;;;-0.28;80.44;99934.73;1682127;84;20195;-42
2021/03/25 06:08:00;;;;;;;;;;;;;;;-0.20;80.48;99935.00;1682951;84;20188;-40
2021/03/25 06:10:49;;;;;;;;;;;;;;;-0.14;80.29;99938.21;1713322;83;20500;-47
2021/03/25 06:13:24;;;;;;;;;;;;;;;-0.09;79.70;99940.55;1714919;82;20190;-41
2021/03/25 06:16:01;;;;;;;;;;;;;;;-0.05;79.10;99941.14;1714184;82;20172;-41
2021/03/25 06:18:46;;;;;;;;;;;;;;;-0.01;78.91;99942.56;1710283;81;20436;-48
2021/03/25 06:21:45;;;;;;;;;;;;;;;0.07;78.62;99941.58;1712157;82;20177;-49
2021/03/25 06:24:30;;;;;;;;;;;;;;;0.13;77.73;99944.78;1710502;82;20178;-41
2021/03/25 06:27:25;;;;;;;;;;;;;;;0.15;77.28;99939.27;1710061;82;20216;-41
2021/03/25 06:30:10;;;;;;;;;;;;;;;0.16;76.30;99941.02;1692730;82;20184;-39
2021/03/25 06:32:47;;;;;;;;;;;;;;;0.16;76.29;99945.75;1709928;82;20524;-48
2021/03/25 06:35:19;;;;;;;;;;;;;;;0.19;76.12;99944.59;1712174;82;20250;-47
2021/03/25 06:37:57;;;;;;;;;;;;;;;0.22;75.61;99945.97;1710648;82;20180;-47
2021/03/25 06:40:39;;;;;;;;;;;;;;;0.23;75.14;99953.27;1694122;82;20493;-40
2021/03/25 06:43:16;;;;;;;;;;;;;;;0.28;75.37;99950.88;1714006;82;20178;-41
2021/03/25 06:45:48;;;;;;;;;;;;;;;0.34;75.38;99961.38;1712455;82;20216;-40
2021/03/25 06:48:23;;;;;;;;;;;;;;;0.37;74.92;99953.38;1696060;82;20531;-40
2021/03/25 06:50:53;;;;;;;;;;;;;;;0.43;74.85;99954.00;1716486;81;20288;-41
2021/03/25 06:53:28;;;;;;;;;;;;;;;0.49;74.85;99952.92;1716174;82;20174;-48
2021/03/25 06:56:04;;;;;;;;;;;;;;;0.57;74.93;99958.33;1679235;83;20176;-41
2021/03/25 06:58:37;;;;;;;;;;;;;;;0.61;73.91;99949.89;1714221;81;20283;-41
2021/03/25 07:01:11;;;;;;;;;;;;;;;0.60;74.37;99954.17;1711811;82;20189;-40
2021/03/25 07:03:39;;;;;;;;;;;;;;;0.64;74.95;99953.84;1717083;82;20497;-39
2021/03/25 07:06:09;;;;;;;;;;;;;;;0.69;75.21;99957.45;1714090;82;20495;-40
2021/03/25 07:08:38;;;;;;;;;;;;;;;0.74;74.29;99959.36;1710753;82;20531;-48
2021/03/25 07:11:18;;;;;;;;;;;;;;;0.73;74.49;99968.34;1710660;82;20181;-48
2021/03/25 07:13:54;;;;;;;;;;;;;;;0.69;74.81;99957.05;1715943;81;20193;-47
2021/03/25 07:16:21;;;;;;;;;;;;;;;0.67;75.12;99947.53;1714122;82;20582;-41
2021/03/25 07:19:06;;;;;;;;;;;;;;;0.67;75.71;99959.11;1693900;82;20534;-45
2021/03/25 07:21:38;;;;;;;;;;;;;;;0.72;76.03;99964.02;1711392;81;20677;-48
2021/03/25 07:24:12;;;;;;;;;;;;;;;0.79;76.44;99969.83;1709736;82;20318;-40
2021/03/25 07:26:44;;;;;;;;;;;;;;;0.89;76.69;99966.75;1712413;82;20196;-39
2021/03/25 07:29:15;;;;;;;;;;;;;;;0.97;75.99;99974.30;1711992;82;20450;-46
2021/03/25 07:31:50;;;;;;;;;;;;;;;0.99;75.25;99976.95;1712782;81;20207;-40
2021/03/25 07:34:45;;;;;;;;;;;;;;;0.97;74.35;99974.30;1711174;82;20458;-47
2021/03/25 07:37:17;;;;;;;;;;;;;;;0.98;74.78;99976.05;1693595;82;20179;-38
2021/03/25 07:39:50;;;;;;;;;;;;;;;1.02;73.76;99979.20;1710668;82;20353;-48
2021/03/25 07:42:36;;;;;;;;;;;;;;;0.97;74.27;99978.17;1721251;81;20395;-47
2021/03/25 07:45:26;;;;;;;;;;;;;;;1.01;74.78;99980.03;1695759;81;20348;-46
2021/03/25 07:48:48;;;;;;;;;;;;;;;1.09;74.55;99973.83;1677748;81;20281;-40
2021/03/25 07:52:06;;;;;;;;;;;;;;;1.18;73.90;99973.27;1724163;81;20204;-49
2021/03/25 07:54:44;;;;;;;;;;;;;;;1.21;73.39;99978.51;1717579;81;20199;-39
2021/03/25 07:57:29;;;;;;;;;;;;;;;1.24;73.55;99969.60;1721908;81;20208;-48
2021/03/25 08:05:12;;;;;;;;;;;;;;;1.30;72.81;99977.11;1720945;81;20249;-48
2021/03/25 08:12:31;;;;;;;;;;;;;;;1.39;73.54;99976.52;1723174;81;20271;-39
2021/03/25 08:15:36;;;;;;;;;;;;;;;1.49;72.90;99971.24;1717819;81;20188;-41
2021/03/25 08:18:54;;;;;;;;;;;;;;;1.50;73.59;99972.98;1722687;81;20173;-41
2021/03/25 08:22:25;;;;;;;;;;;;;;;1.50;72.91;99974.28;1718249;81;20185;-47
2021/03/25 08:25:47;;;;;;;;;;;;;;;1.54;74.50;99981.29;1717958;81;20192;-40
2021/03/25 08:29:02;;;;;;;;;;;;;;;1.61;73.64;99979.36;1721775;81;20173;-41
2021/03/25 08:31:59;;;;;;;;;;;;;;;1.66;74.18;99985.95;1642944;84;20184;-40
2021/03/25 08:34:47;;;;;;;;;;;;;;;1.73;74.22;99995.62;1642851;85;20190;-41
2021/03/25 08:37:21;;;;;;;;;;;;;;;1.72;73.27;99990.00;1647606;85;20232;-40
2021/03/25 08:40:02;;;;;;;;;;;;;;;1.73;73.72;99990.05;1638809;85;20173;-48
2021/03/25 08:42:39;;;;;;;;;;;;;;;1.78;72.08;99982.03;1639407;85;20203;-48
2021/03/25 08:45:17;;;;;;;;;;;;;;;1.79;72.40;99986.36;1643896;85;20216;-48
2021/03/25 08:48:25;;;;;;;;;;;;;;;1.85;72.63;99986.54;1645093;85;20518;-41
2021/03/25 08:51:15;;;;;;;;;;;;;;;1.92;72.88;99986.34;1645676;85;20812;-48
2021/03/25 08:54:17;;;;;;;;;;;;;;;2.17;73.96;99987.92;1750076;79;20567;-41
2021/03/25 08:57:02;;;;;;;;;;;;;;;2.30;73.60;99987.84;1722520;82;20295;-48
2021/03/25 08:59:56;;;;;;;;;;;;;;;2.31;70.68;99990.45;1694039;83;20199;-48
2021/03/25 09:02:34;;;;;;;;;;;;;;;2.23;72.17;99991.96;1719079;82;20531;-41
2021/03/25 09:05:17;;;;;;;;;;;;;;;2.22;71.49;99992.80;1722037;82;20177;-48
2021/03/25 09:07:47;;;;;;;;;;;;;;;2.15;70.94;99993.87;1718295;82;20235;-47
2021/03/25 09:10:28;;;;;;;;;;;;;;;2.09;71.34;99991.58;1718636;82;20183;-42
2021/03/25 09:13:01;;;;;;;;;;;;;;;2.11;71.62;99992.91;1799595;78;20845;-41
2021/03/25 09:15:30;;;;;;;;;;;;;;;2.12;71.41;99998.10;1777091;79;20171;-49
2021/03/25 09:18:00;;;;;;;;;;;;;;;2.18;71.69;99993.53;1779395;79;20483;-41
2021/03/25 09:20:31;;;;;;;;;;;;;;;2.26;71.52;99993.36;1746364;80;20545;-48
2021/03/25 09:23:32;;;;;;;;;;;;;;;2.35;71.22;100002.63;1775532;80;20174;-48
2021/03/25 09:26:02;;;;;;;;;;;;;;;2.42;71.15;100001.52;1705875;82;20681;-48
2021/03/25 09:31:58;;;;;;;;;;;;;;;2.48;70.53;100012.01;1802147;78;20545;-47
2021/03/25 09:34:43;;;;;;;;;;;;;;;2.43;70.91;100006.71;1688443;84;20178;-40
2021/03/25 09:37:47;;;;;;;;;;;;;;;2.48;70.45;100005.55;1682046;84;20516;-48
2021/03/25 09:40:50;;;;;;;;;;;;;;;2.51;70.40;100008.23;1686432;83;20576;-49
2021/03/25 09:43:28;;;;;;;;;;;;;;;2.50;70.20;100011.23;1688545;84;20696;-48
2021/03/25 09:46:21;;;;;;;;;;;;;;;2.51;69.88;99996.62;1686293;83;20556;-41
2021/03/25 09:49:00;;;;;;;;;;;;;;;2.53;69.37;100007.44;1801639;77;20233;-41
2021/03/25 09:51:29;;;;;;;;;;;;;;;2.45;70.32;100004.20;1775636;78;20196;-48
2021/03/25 09:53:58;;;;;;;;;;;;;;;2.42;70.19;100012.71;1751643;81;20171;-41
2021/03/25 09:56:30;;;;;;;;;;;;;;;2.42;69.74;100011.84;1752256;80;20188;-40
2021/03/25 09:58:58;;;;;;;;;;;;;;;2.36;70.53;100014.70;1751990;80;20276;-40
2021/03/25 10:01:45;;;;;;;;;;;;;;;2.39;70.64;100012.22;1751505;80;20200;-40
2021/03/25 10:04:32;;;;;;;;;;;;;;;2.43;70.03;100012.30;1752420;80;20203;-40
2021/03/25 10:07:05;;;;;;;;;;;;;;;2.44;70.12;100015.36;1749415;80;20224;-48
2021/03/25 10:09:57;;;;;;;;;;;;;;;2.38;69.66;100013.48;1749870;80;20169;-40
2021/03/25 10:12:47;;;;;;;;;;;;;;;2.26;69.97;100018.27;1747218;80;20676;-40
2021/03/25 10:15:41;;;;;;;;;;;;;;;2.20;70.86;100016.80;1748906;80;20150;-48
2021/03/25 10:19:09;;;;;;;;;;;;;;;2.20;71.43;100016.80;1747525;80;20420;-47
2021/03/25 10:23:08;;;;;;;;;;;;;;;2.25;71.21;100015.23;1748921;80;20177;-41
2021/03/25 10:29:54;;;;;;;;;;;;;;;2.43;71.98;100015.75;1755716;80;20267;-48
2021/03/25 10:33:25;;;;;;;;;;;;;;;2.51;71.16;100013.41;1734261;80;20172;-40
2021/03/25 10:36:19;;;;;;;;;;;;;;;2.53;72.07;100013.89;1753519;80;20461;-40
2021/03/25 10:38:51;;;;;;;;;;;;;;;2.60;71.57;100013.22;1746788;80;20589;-40
2021/03/25 10:41:21;;;;;;;;;;;;;;;2.59;71.68;100011.89;1729426;80;20182;-40
2021/03/25 10:43:50;;;;;;;;;;;;;;;2.64;72.12;100012.89;1754138;80;20509;-48
2021/03/25 10:46:30;;;;;;;;;;;;;;;2.71;71.85;100007.47;1751258;80;20179;-48
2021/03/25 10:49:04;;;;;;;;;;;;;;;2.74;70.44;100001.98;1704510;82;20228;-40
2021/03/25 10:51:32;;;;;;;;;;;;;;;2.71;70.57;100008.34;1735965;80;20192;-48
2021/03/25 10:54:02;;;;;;;;;;;;;;;2.68;71.28;100008.70;1737194;80;20486;-48
2021/03/25 10:56:39;;;;;;;;;;;;;;;2.65;71.66;100006.89;1734168;80;20849;-48
2021/03/25 10:59:14;;;;;;;;;;;;;;;2.65;71.80;100008.19;1710607;80;20208;-48
2021/03/25 11:01:51;;;;;;;;;;;;;;;2.63;71.77;100009.86;1732517;80;20222;-48
2021/03/25 11:04:24;;;;;;;;;;;;;;;2.63;72.49;100004.70;1732896;80;20183;-48
2021/03/25 11:06:52;;;;;;;;;;;;;;;2.69;72.57;100006.57;1733407;80;20406;-48
2021/03/25 11:09:26;;;;;;;;;;;;;;;2.79;72.90;100000.41;1737075;80;20223;-41
2021/03/25 11:12:17;;;;;;;;;;;;;;;2.85;71.83;99999.69;1733759;81;20295;-40
2021/03/25 11:14:51;;;;;;;;;;;;;;;2.87;71.67;100005.34;1732630;80;20182;-39
2021/03/25 11:17:34;;;;;;;;;;;;;;;2.85;71.25;100000.98;1724164;80;20199;-50
2021/03/25 11:20:06;;;;;;;;;;;;;;;2.88;71.44;99999.33;1730853;80;20233;-47
2021/03/25 11:22:36;;;;;;;;;;;;;;;2.92;71.12;100004.17;1736247;80;20420;-40
2021/03/25 11:25:09;;;;;;;;;;;;;;;2.93;71.15;100002.91;1731132;80;20287;-49
2021/03/25 11:27:45;;;;;;;;;;;;;;;2.97;70.99;100003.02;1738996;80;20182;-41
2021/03/25 11:30:37;;;;;;;;;;;;;;;2.95;70.55;100006.83;1734227;80;20188;-42
2021/03/25 11:33:31;;;;;;;;;;;;;;;2.97;70.87;100005.17;1734278;80;20234;-48
2021/03/25 11:36:01;;;;;;;;;;;;;;;2.98;70.59;100007.34;1732364;81;20184;-44
2021/03/25 11:38:36;;;;;;;;;;;;;;;3.03;71.17;100005.33;1731807;80;20199;-44
2021/03/25 11:41:10;;;;;;;;;;;;;;;3.11;70.54;99993.88;1732578;80;20188;-48
2021/03/25 11:43:53;;;;;;;;;;;;;;;3.12;69.72;100001.67;1726838;80;20280;-40
2021/03/25 11:46:53;;;;;;;;;;;;;;;3.12;69.88;100005.55;1736028;80;20324;-49
2021/03/25 11:50:25;;;;;;;;;;;;;;;3.18;70.08;99996.65;1737045;80;20204;-40
2021/03/25 11:57:33;;;;;;;;;;;;;;;3.27;69.70;99998.61;1731381;80;20507;-41
2021/03/25 12:00:18;;;;;;;;;;;;;;;3.36;70.36;99991.47;1733081;80;20678;-47
2021/03/25 12:02:52;;;;;;;;;;;;;;;3.41;70.13;99997.21;1737911;80;20204;-48
2021/03/25 12:05:33;;;;;;;;;;;;;;;3.46;70.41;99995.61;1734158;82;20318;-41
2021/03/25 12:08:03;;;;;;;;;;;;;;;3.49;69.55;99994.83;1736012;80;20205;-41
2021/03/25 12:10:33;;;;;;;;;;;;;;;3.43;69.46;99998.56;1694506;82;20198;-42
2021/03/25 12:13:01;;;;;;;;;;;;;;;3.33;69.77;100001.76;1681294;84;20188;-43
2021/03/25 12:15:29;;;;;;;;;;;;;;;3.28;70.46;100006.81;1670273;84;20767;-42
2021/03/25 12:18:00;;;;;;;;;;;;;;;3.31;70.42;99996.55;1682794;83;20163;-41
2021/03/25 12:20:32;;;;;;;;;;;;;;;3.29;70.30;99998.63;1681472;83;20210;-50
2021/03/25 12:23:07;;;;;;;;;;;;;;;3.26;71.10;100005.04;1678418;83;20270;-40
2021/03/25 12:25:37;;;;;;;;;;;;;;;3.32;71.33;100009.06;1680989;83;20965;-49
2021/03/25 12:28:05;;;;;;;;;;;;;;;3.37;70.84;100006.17;1700591;82;20421;-47
2021/03/25 12:30:32;;;;;;;;;;;;;;;3.37;70.57;100008.34;1701276;82;20164;-41
2021/03/25 12:33:00;;;;;;;;;;;;;;;3.38;70.93;100009.22;1682101;83;20220;-47
2021/03/25 12:35:28;;;;;;;;;;;;;;;3.38;70.68;100010.50;1683534;83;20216;-47
2021/03/25 12:37:55;;;;;;;;;;;;;;;3.36;70.73;100010.87;1682894;83;20170;-41
2021/03/25 12:40:24;;;;;;;;;;;;;;;3.37;70.66;100013.52;1679890;83;20187;-48
2021/03/25 12:42:52;;;;;;;;;;;;;;;3.36;70.37;100013.06;1677395;83;20397;-48
2021/03/25 12:45:34;;;;;;;;;;;;;;;3.37;70.53;100014.81;1679022;83;20170;-48
2021/03/25 12:48:03;;;;;;;;;;;;;;;3.42;70.93;100017.48;1676565;83;20440;-42
2021/03/25 12:50:30;;;;;;;;;;;;;;;3.50;70.93;100012.52;1676474;83;20227;-43
2021/03/25 12:52:58;;;;;;;;;;;;;;;3.58;70.05;100009.67;1676281;83;20650;-42
2021/03/25 12:55:26;;;;;;;;;;;;;;;3.63;69.85;100014.12;1684660;83;20208;-48
2021/03/25 12:57:54;;;;;;;;;;;;;;;3.67;69.46;100009.48;1682864;83;20207;-48
2021/03/25 13:00:29;;;;;;;;;;;;;;;3.70;69.26;100006.95;1685212;83;20780;-49
2021/03/25 13:02:57;;;;;;;;;;;;;;;3.72;69.28;100014.77;1677900;83;20170;-40
2021/03/25 13:05:24;;;;;;;;;;;;;;;3.72;69.38;100018.65;1682352;83;20171;-48
2021/03/25 13:07:54;;;;;;;;;;;;;;;3.65;69.79;100010.27;1679666;83;20439;-48
2021/03/25 13:10:22;;;;;;;;;;;;;;;3.58;70.94;100010.97;1691588;82;20457;-49
2021/03/25 13:12:49;;;;;;;;;;;;;;;3.52;71.59;100022.05;1690642;82;20274;-49
2021/03/25 13:15:19;;;;;;;;;;;;;;;3.50;72.20;100022.44;1690108;82;20164;-48
2021/03/25 13:17:47;;;;;;;;;;;;;;;3.47;72.16;100024.94;1687199;83;20551;-48
2021/03/25 13:20:19;;;;;;;;;;;;;;;3.46;72.69;100029.66;1660792;83;20801;-48
2021/03/25 13:22:47;;;;;;;;;;;;;;;3.41;72.87;100029.54;1682157;83;20466;-41
2021/03/25 13:25:26;;;;;;;;;;;;;;;3.37;73.50;100027.73;1689360;82;20494;-47
2021/03/25 13:27:53;;;;;;;;;;;;;;;3.42;74.01;100033.00;1692641;82;20163;-48
2021/03/25 13:30:21;;;;;;;;;;;;;;;3.52;74.09;100026.34;1690187;82;20181;-48
2021/03/25 13:32:49;;;;;;;;;;;;;;;3.56;73.59;100022.58;1691907;83;20175;-42
2021/03/25 13:35:16;;;;;;;;;;;;;;;3.62;73.06;100027.03;1700056;82;20463;-40
2021/03/25 13:37:44;;;;;;;;;;;;;;;3.67;72.64;100021.13;1700605;82;20195;-49
2021/03/25 13:40:14;;;;;;;;;;;;;;;3.74;72.38;100026.89;1695295;82;20183;-50
2021/03/25 13:42:42;;;;;;;;;;;;;;;3.83;72.11;100022.36;1698468;83;20179;-42
2021/03/25 13:45:10;;;;;;;;;;;;;;;3.90;71.42;100025.53;1691626;82;20461;-47
2021/03/25 13:47:38;;;;;;;;;;;;;;;3.94;71.22;100019.59;1692958;83;20488;-47
2021/03/25 13:50:07;;;;;;;;;;;;;;;3.99;70.96;100023.13;1688469;83;20202;-42
2021/03/25 13:52:35;;;;;;;;;;;;;;;4.02;70.09;100017.16;1703504;82;20266;-39
